KGUP

Gallup Municipal Airport

Gallup, New Mexico, USA
METAR KGUP 222053Z AUTO 22013G20KT 10SM SCT060 19/04 A3013 RMK AO2 LTG DSNT NE SLP103 T01940044 58015
Observed Flight Rules
Oct-22 @ 20:53 UTC (11 minutes ago) Visual Flight Rules
Wind Visibility Clouds
220° at 13 knots
 Gusting to 20 knots
10 miles
  • Scattered at 6,000' AGL
Temperatures Readings
Current 19°C / 66°F
Dewpoint 4°C / 39°F
Humidity 37%
Altimeter 30.13" Hg
Pressure 1010.3 hPa
Elevation 1971
METAR KGUP 222053Z AUTO 22013G20KT 10SM SCT060 19/04 A3013 RMK AO2 LTG DSNT NE SLP103 T01940044 58015
Observed Flight Rules
Oct-22 @ 20:53 UTC
(11 minutes ago)
VFR
Wind Visibility
220° at 13 knots
 Gusting to 20 knots
10 miles
Clouds
  • Scattered at 6,000' AGL
Temperature Dewpoint
19°C / 66°F 4°C / 39°F
Humidity Altimeter Pressure
37% 30.13" Hg 1010.3 hPa